createdAt,value
2023-03-26T00:00:58.255Z,34.40
2023-03-26T00:03:28.884Z,16.13
2023-03-26T00:06:11.921Z,17.00
2023-03-26T00:08:44.225Z,17.65
2023-03-26T00:11:17.121Z,19.00
2023-03-26T00:13:49.121Z,16.83
2023-03-26T00:16:22.358Z,17.45
2023-03-26T00:18:53.990Z,15.75
2023-03-26T00:21:31.840Z,18.75
2023-03-26T00:24:06.844Z,16.92
2023-03-26T00:26:55.686Z,15.55
2023-03-26T00:29:27.032Z,15.05
2023-03-26T00:32:15.972Z,16.55
2023-03-26T00:34:48.561Z,16.77
2023-03-26T00:37:18.793Z,18.13
2023-03-26T00:42:38.061Z,16.00
2023-03-26T00:47:43.530Z,16.30
2023-03-26T00:50:17.793Z,17.70
2023-03-26T00:52:49.835Z,20.45
2023-03-26T00:55:20.193Z,17.20
2023-03-26T00:57:50.362Z,16.02
2023-03-26T01:00:42.349Z,18.40
2023-03-26T01:03:27.564Z,18.17
2023-03-26T01:06:13.575Z,18.65
2023-03-26T01:08:49.538Z,18.27
2023-03-26T01:11:26.264Z,17.45
2023-03-26T01:14:02.634Z,17.42
2023-03-26T01:16:52.401Z,16.77
2023-03-26T01:19:50.416Z,18.10
2023-03-26T01:22:24.546Z,18.52
2023-03-26T01:24:55.820Z,17.55
2023-03-26T01:27:57.118Z,17.75
2023-03-26T01:30:39.556Z,18.50
2023-03-26T01:33:32.362Z,16.67
2023-03-26T01:36:34.772Z,17.08
2023-03-26T01:39:33.262Z,17.00
2023-03-26T01:42:18.592Z,17.20
2023-03-26T01:45:00.866Z,17.70
2023-03-26T01:47:32.299Z,17.60
2023-03-26T01:50:02.633Z,18.05
2023-03-26T01:52:33.988Z,18.58
2023-03-26T01:55:05.462Z,18.15
2023-03-26T01:58:01.493Z,19.25
2023-03-26T02:00:33.258Z,18.48
2023-03-26T02:03:22.051Z,18.10
2023-03-26T02:05:58.718Z,17.45
2023-03-26T02:08:43.708Z,19.00
2023-03-26T02:11:19.978Z,18.02
2023-03-26T02:13:50.586Z,18.85
2023-03-26T02:16:23.064Z,19.00
2023-03-26T02:18:58.202Z,16.45
2023-03-26T02:21:29.537Z,18.90
2023-03-26T02:24:17.828Z,18.70
2023-03-26T02:26:49.597Z,18.15
2023-03-26T02:29:22.757Z,19.30
2023-03-26T02:31:53.426Z,18.33
2023-03-26T02:34:45.553Z,18.95
2023-03-26T02:37:15.932Z,19.17
2023-03-26T02:39:48.710Z,19.20
2023-03-26T02:42:28.705Z,19.10
2023-03-26T02:44:59.328Z,19.50
2023-03-26T02:47:48.776Z,18.40
2023-03-26T02:50:57.804Z,19.85
2023-03-26T02:53:53.526Z,19.17
2023-03-26T02:56:30.630Z,20.30
2023-03-26T02:59:26.764Z,20.02
2023-03-26T03:02:21.369Z,19.00
2023-03-26T03:04:51.917Z,19.92
2023-03-26T03:07:22.751Z,18.83
2023-03-26T03:12:43.985Z,17.98
2023-03-26T03:18:03.195Z,18.75
2023-03-26T03:20:37.531Z,18.40
2023-03-26T03:23:07.814Z,18.33
2023-03-26T03:25:38.228Z,17.63
2023-03-26T03:30:59.938Z,19.50
2023-03-26T03:33:50.437Z,20.98
2023-03-26T03:36:24.999Z,20.27
2023-03-26T03:41:56.032Z,18.73
2023-03-26T03:44:26.445Z,19.97
2023-03-26T03:46:59.365Z,20.15
2023-03-26T03:49:29.776Z,18.40
2023-03-26T03:52:01.057Z,18.52
2023-03-26T03:54:39.031Z,17.58
2023-03-26T03:57:24.458Z,17.92
2023-03-26T04:03:08.802Z,18.67
2023-03-26T04:05:39.223Z,18.80
2023-03-26T04:08:10.242Z,32.55
2023-03-26T04:10:58.509Z,20.05
2023-03-26T04:14:02.808Z,39.92
2023-03-26T04:16:54.040Z,61.60
2023-03-26T04:19:25.501Z,49.60
2023-03-26T04:21:56.861Z,134.25
2023-03-26T04:27:30.638Z,93.13
2023-03-26T04:30:30.841Z,25.10
2023-03-26T04:33:08.943Z,362.17
2023-03-26T04:35:44.003Z,516.63
2023-03-26T04:38:19.103Z,388.15
2023-03-26T04:40:54.475Z,625.65
2023-03-26T04:43:49.448Z,635.53
2023-03-26T04:46:28.743Z,508.75
2023-03-26T04:49:10.768Z,364.00
2023-03-26T04:51:44.169Z,79.30
2023-03-26T04:54:32.730Z,546.13
2023-03-26T05:00:21.048Z,459.40
2023-03-26T05:02:58.197Z,84.47
2023-03-26T05:05:30.686Z,200.63
2023-03-26T05:08:19.141Z,164.23
2023-03-26T05:11:13.632Z,331.05
2023-03-26T05:13:45.251Z,416.70
2023-03-26T05:16:16.773Z,86.22
2023-03-26T05:18:57.284Z,459.48
2023-03-26T05:21:33.925Z,581.30
2023-03-26T05:24:22.594Z,569.25
2023-03-26T05:27:11.623Z,381.00
2023-03-26T05:29:42.303Z,63.65
2023-03-26T05:32:13.669Z,410.03
2023-03-26T05:37:14.137Z,464.52
2023-03-26T05:40:02.664Z,493.33
2023-03-26T05:42:45.833Z,600.85
2023-03-26T05:45:45.428Z,467.52
2023-03-26T05:48:27.870Z,579.30
2023-03-26T05:51:00.010Z,629.67
2023-03-26T05:53:33.759Z,364.17
2023-03-26T05:58:18.889Z,20.00
2023-03-26T06:01:10.972Z,21.35
2023-03-26T06:04:04.545Z,17.75
2023-03-26T06:06:41.805Z,68.53
2023-03-26T06:09:14.383Z,23.50
2023-03-26T06:11:45.840Z,21.40
2023-03-26T06:14:16.295Z,24.92
2023-03-26T06:17:07.171Z,71.05
2023-03-26T06:19:57.202Z,30.45
2023-03-26T06:22:36.885Z,27.58
2023-03-26T06:25:25.255Z,28.55
2023-03-26T06:28:18.335Z,17.65
2023-03-26T06:36:57.775Z,19.80
2023-03-26T06:39:29.378Z,303.23
2023-03-26T06:45:01.799Z,256.13
2023-03-26T06:47:37.807Z,427.60
2023-03-26T06:50:25.975Z,297.08
2023-03-26T06:53:15.694Z,363.40
2023-03-26T06:56:10.078Z,328.38
2023-03-26T06:58:52.481Z,268.15
2023-03-26T07:01:41.185Z,212.63
2023-03-26T07:04:30.726Z,24.17
2023-03-26T07:07:20.613Z,41.58
2023-03-26T07:10:14.335Z,32.88
2023-03-26T07:13:11.057Z,49.17
2023-03-26T07:16:01.426Z,27.88
2023-03-26T07:18:51.656Z,405.30
2023-03-26T07:21:25.791Z,541.17
2023-03-26T07:23:56.753Z,591.95
2023-03-26T07:30:01.076Z,103.93
2023-03-26T07:32:51.903Z,491.27
2023-03-26T07:38:53.204Z,112.20
2023-03-26T07:41:55.143Z,29.83
2023-03-26T07:44:43.953Z,19.35
2023-03-26T07:47:38.065Z,20.00
2023-03-26T07:50:22.460Z,17.70
2023-03-26T07:53:01.761Z,23.05
2023-03-26T07:56:14.711Z,24.88
2023-03-26T07:59:13.561Z,19.20
2023-03-26T08:02:43.576Z,18.23
2023-03-26T08:06:02.209Z,17.77
2023-03-26T08:12:57.888Z,16.80
2023-03-26T08:16:09.047Z,16.58
2023-03-26T08:18:58.836Z,18.23
2023-03-26T08:21:34.224Z,17.77
2023-03-26T08:24:25.357Z,17.58
2023-03-26T08:30:00.616Z,18.15
2023-03-26T08:32:32.268Z,17.15
2023-03-26T08:35:03.576Z,19.48
2023-03-26T08:37:34.233Z,18.40
2023-03-26T08:40:04.755Z,17.45
2023-03-26T08:43:30.267Z,21.13
2023-03-26T08:46:21.944Z,19.42
2023-03-26T08:49:23.308Z,18.10
2023-03-26T08:52:32.779Z,18.67
2023-03-26T08:55:38.785Z,17.58
2023-03-26T08:58:30.112Z,33.45
2023-03-26T09:01:24.651Z,209.40
2023-03-26T09:04:23.717Z,33.60
2023-03-26T09:07:30.678Z,126.80
2023-03-26T09:10:22.631Z,410.52
2023-03-26T09:13:13.906Z,431.65
2023-03-26T09:15:54.184Z,186.57
2023-03-26T09:18:36.406Z,461.57
2023-03-26T09:21:38.586Z,23.07
2023-03-26T09:24:45.037Z,195.88
2023-03-26T09:28:18.607Z,32.85
2023-03-26T09:31:22.941Z,187.98
2023-03-26T09:33:59.139Z,648.75
2023-03-26T09:37:00.153Z,186.20
2023-03-26T09:39:56.136Z,22.47
2023-03-26T09:42:49.106Z,74.15
2023-03-26T09:45:47.897Z,401.98
2023-03-26T09:48:50.801Z,220.55
2023-03-26T09:51:25.120Z,766.42
2023-03-26T09:54:04.856Z,469.45
2023-03-26T09:57:00.086Z,147.55
2023-03-26T09:59:55.782Z,179.02
2023-03-26T10:02:54.628Z,217.30
2023-03-26T10:09:36.433Z,654.63
2023-03-26T10:15:00.835Z,77.15
2023-03-26T10:18:27.368Z,88.63
2023-03-26T10:20:59.938Z,190.43
2023-03-26T10:23:50.659Z,22.87
2023-03-26T10:26:39.352Z,192.53
2023-03-26T10:29:46.584Z,270.92
2023-03-26T10:32:36.082Z,40.30
2023-03-26T10:35:22.804Z,47.50
2023-03-26T10:38:21.265Z,29.63
2023-03-26T10:41:16.071Z,84.53
2023-03-26T10:44:09.163Z,212.60
2023-03-26T10:47:08.793Z,51.03
2023-03-26T10:49:56.522Z,28.65
2023-03-26T10:52:32.082Z,304.60
2023-03-26T10:55:19.330Z,426.02
2023-03-26T10:58:48.849Z,451.20
2023-03-26T11:01:32.529Z,502.40
2023-03-26T11:04:28.685Z,57.03
2023-03-26T11:07:22.795Z,334.90
2023-03-26T11:10:05.828Z,473.02
2023-03-26T11:12:43.250Z,635.72
2023-03-26T11:15:54.823Z,521.90
2023-03-26T11:21:24.231Z,593.95
2023-03-26T11:27:19.065Z,130.70
2023-03-26T11:30:43.010Z,515.22
2023-03-26T11:33:21.364Z,643.08
2023-03-26T11:35:54.859Z,219.45
2023-03-26T11:38:28.768Z,16.27
2023-03-26T11:41:29.504Z,21.58
2023-03-26T11:44:45.955Z,131.75
2023-03-26T11:47:21.609Z,158.63
2023-03-26T11:49:53.845Z,254.65
2023-03-26T11:52:24.613Z,143.60
2023-03-26T11:54:55.391Z,287.13
2023-03-26T11:57:31.770Z,208.48
2023-03-26T12:00:23.533Z,74.60
2023-03-26T12:02:59.827Z,634.47
2023-03-26T12:05:38.978Z,653.17
2023-03-26T12:08:23.993Z,297.75
2023-03-26T12:14:04.725Z,97.95
2023-03-26T12:16:35.065Z,342.83
2023-03-26T12:19:22.118Z,23.38
2023-03-26T12:21:56.281Z,26.45
2023-03-26T12:24:30.581Z,230.18
2023-03-26T12:27:33.248Z,58.90
2023-03-26T12:30:36.264Z,116.20
2023-03-26T12:33:17.364Z,141.82
2023-03-26T12:35:48.000Z,75.23
2023-03-26T12:38:38.618Z,23.40
2023-03-26T12:44:52.934Z,81.75
2023-03-26T12:47:58.314Z,20.15
2023-03-26T12:50:34.564Z,88.53
2023-03-26T12:53:23.402Z,15.55
2023-03-26T12:56:03.976Z,126.47
2023-03-26T12:59:20.772Z,57.08
2023-03-26T13:03:44.095Z,11.98
2023-03-26T13:06:24.063Z,12.55
2023-03-26T13:09:15.450Z,13.25
2023-03-26T13:12:09.631Z,13.55
2023-03-26T13:14:45.617Z,12.50
2023-03-26T13:17:25.134Z,13.30
2023-03-26T13:20:01.206Z,11.85
2023-03-26T13:23:29.048Z,12.77
2023-03-26T13:26:40.892Z,13.23
2023-03-26T13:29:37.214Z,12.60
2023-03-26T13:32:42.821Z,13.32
2023-03-26T13:35:34.548Z,14.38
2023-03-26T13:38:42.262Z,13.70
2023-03-26T13:42:02.381Z,13.65
2023-03-26T13:44:51.368Z,14.55
2023-03-26T13:50:36.816Z,14.27
2023-03-26T13:53:21.840Z,13.68
2023-03-26T13:55:57.077Z,13.02
2023-03-26T13:58:44.516Z,12.75
2023-03-26T14:01:22.775Z,14.20
2023-03-26T14:04:52.172Z,13.75
2023-03-26T14:07:55.810Z,12.63
2023-03-26T14:10:37.799Z,13.73
2023-03-26T14:13:32.100Z,12.80
2023-03-26T14:16:17.353Z,13.00
2023-03-26T14:18:47.664Z,12.57
2023-03-26T14:21:28.147Z,12.48
2023-03-26T14:24:22.379Z,12.25
2023-03-26T14:27:24.264Z,12.88
2023-03-26T14:30:03.754Z,13.32
2023-03-26T14:32:55.772Z,12.55
2023-03-26T14:36:00.018Z,12.40
2023-03-26T14:38:35.933Z,12.27
2023-03-26T14:41:32.312Z,11.75
2023-03-26T14:44:47.631Z,13.07
2023-03-26T14:47:25.021Z,12.63
2023-03-26T14:50:18.129Z,11.95
2023-03-26T14:53:00.854Z,11.50
2023-03-26T14:55:50.944Z,11.32
2023-03-26T14:58:26.849Z,11.10
2023-03-26T15:01:27.606Z,10.95
2023-03-26T15:04:27.829Z,12.15
2023-03-26T15:07:07.728Z,12.35
2023-03-26T15:10:02.622Z,12.82
2023-03-26T15:12:57.266Z,11.90
2023-03-26T15:19:40.586Z,11.85
2023-03-26T15:22:47.975Z,11.27
2023-03-26T15:25:54.566Z,11.73
2023-03-26T15:29:06.578Z,12.20
2023-03-26T15:32:02.738Z,11.52
2023-03-26T15:35:18.034Z,12.48
2023-03-26T15:38:03.210Z,11.38
2023-03-26T15:41:23.420Z,11.90
2023-03-26T15:44:23.304Z,11.45
2023-03-26T15:47:19.867Z,11.80
2023-03-26T15:50:21.848Z,12.15
2023-03-26T15:52:59.571Z,12.23
2023-03-26T15:56:22.725Z,11.90
2023-03-26T15:59:29.529Z,12.00
2023-03-26T16:02:24.265Z,11.65
2023-03-26T16:04:59.784Z,11.63
2023-03-26T16:07:51.090Z,11.52
2023-03-26T16:10:54.986Z,11.55
2023-03-26T16:13:30.193Z,11.00
2023-03-26T16:16:09.392Z,11.82
2023-03-26T16:18:43.289Z,11.02
2023-03-26T16:21:36.808Z,11.35
2023-03-26T16:24:10.736Z,11.68
2023-03-26T16:26:47.073Z,11.18
2023-03-26T16:29:20.560Z,10.75
2023-03-26T16:32:30.918Z,11.57
2023-03-26T16:35:19.518Z,10.48
2023-03-26T16:38:13.980Z,11.20
2023-03-26T16:41:20.672Z,11.55
2023-03-26T16:44:17.857Z,11.30
2023-03-26T16:47:23.398Z,11.05
2023-03-26T16:50:22.997Z,11.02
2023-03-26T16:53:44.949Z,11.10
2023-03-26T16:56:15.595Z,11.18
2023-03-26T16:58:59.475Z,11.23
2023-03-26T17:01:49.405Z,10.90
2023-03-26T17:04:28.374Z,10.98
2023-03-26T17:07:22.761Z,10.77
2023-03-26T17:10:04.201Z,10.80
2023-03-26T17:13:13.272Z,10.93
2023-03-26T17:15:55.770Z,10.97
2023-03-26T17:18:38.950Z,11.23
2023-03-26T17:21:12.024Z,10.50
2023-03-26T17:23:54.399Z,10.93
2023-03-26T17:26:46.985Z,11.07
2023-03-26T17:37:53.376Z,10.85
2023-03-26T17:40:47.669Z,11.93
2023-03-26T17:43:38.751Z,12.57
2023-03-26T17:46:27.671Z,11.43
2023-03-26T17:49:20.775Z,11.60
2023-03-26T17:52:24.107Z,11.67
2023-03-26T17:54:58.948Z,10.80
2023-03-26T17:57:54.839Z,11.73
2023-03-26T18:00:31.717Z,11.60
2023-03-26T18:03:07.319Z,11.15
2023-03-26T18:05:42.826Z,11.88
2023-03-26T18:08:33.838Z,10.88
2023-03-26T18:11:22.390Z,11.10
2023-03-26T18:14:13.569Z,11.65
2023-03-26T18:16:48.582Z,10.63
2023-03-26T18:19:21.612Z,10.77
2023-03-26T18:21:59.165Z,10.80
2023-03-26T18:24:34.211Z,11.05
2023-03-26T18:27:13.045Z,10.98
2023-03-26T18:30:02.690Z,11.82
2023-03-26T18:32:35.816Z,11.32
2023-03-26T18:35:24.707Z,11.45
2023-03-26T18:38:04.065Z,11.07
2023-03-26T18:40:44.017Z,10.65
2023-03-26T18:43:28.624Z,10.77
2023-03-26T18:46:04.892Z,10.82
2023-03-26T18:48:35.725Z,11.27
2023-03-26T18:51:08.333Z,10.47
2023-03-26T18:53:43.821Z,11.13
2023-03-26T18:56:36.128Z,11.30
2023-03-26T18:59:35.057Z,11.60
2023-03-26T19:02:13.328Z,12.17
2023-03-26T19:04:47.029Z,11.15
2023-03-26T19:07:29.019Z,11.02
2023-03-26T19:09:59.534Z,11.90
2023-03-26T19:12:36.060Z,11.30
2023-03-26T19:15:13.976Z,10.93
2023-03-26T19:17:58.223Z,11.65
2023-03-26T19:20:35.950Z,11.98
2023-03-26T19:23:07.932Z,11.70
2023-03-26T19:25:46.543Z,11.50
2023-03-26T19:28:20.364Z,11.63
2023-03-26T19:30:56.195Z,11.13
2023-03-26T19:33:35.085Z,10.93
2023-03-26T19:36:20.616Z,10.98
2023-03-26T19:39:24.191Z,11.57
2023-03-26T19:42:43.111Z,11.65
2023-03-26T19:45:29.027Z,10.50
2023-03-26T19:48:12.120Z,10.50
2023-03-26T19:50:55.857Z,10.43
2023-03-26T19:53:38.240Z,11.23
2023-03-26T19:56:28.584Z,10.35
2023-03-26T19:59:17.664Z,10.55
2023-03-26T20:01:48.127Z,11.05
2023-03-26T20:04:19.052Z,10.32
2023-03-26T20:06:51.497Z,10.63
2023-03-26T20:09:21.810Z,11.25
2023-03-26T20:11:54.881Z,10.47
2023-03-26T20:14:28.279Z,10.98
2023-03-26T20:16:59.281Z,11.25
2023-03-26T20:19:30.818Z,10.57
2023-03-26T20:22:01.378Z,10.95
2023-03-26T20:24:32.824Z,10.65
2023-03-26T20:27:21.765Z,10.38
2023-03-26T20:29:52.094Z,10.60
2023-03-26T20:32:27.405Z,11.13
2023-03-26T20:34:57.939Z,10.68
2023-03-26T20:37:28.757Z,10.73
2023-03-26T20:39:59.030Z,11.40
2023-03-26T20:42:29.679Z,11.30
2023-03-26T20:45:00.282Z,10.73
2023-03-26T20:47:30.545Z,10.03
2023-03-26T20:50:20.718Z,11.05
2023-03-26T20:52:51.609Z,10.68
2023-03-26T20:55:28.365Z,11.52
2023-03-26T20:57:58.624Z,10.80
2023-03-26T21:00:28.947Z,10.50
2023-03-26T21:03:01.010Z,10.50
2023-03-26T21:05:32.491Z,10.32
2023-03-26T21:08:22.571Z,11.30
2023-03-26T21:10:53.826Z,10.75
2023-03-26T21:16:05.839Z,10.80
2023-03-26T21:18:36.925Z,11.13
2023-03-26T21:21:52.045Z,10.98
2023-03-26T21:24:38.954Z,11.25
2023-03-26T21:27:19.303Z,11.27
2023-03-26T21:29:50.086Z,10.77
2023-03-26T21:32:20.509Z,10.17
2023-03-26T21:34:58.820Z,9.80
2023-03-26T21:37:30.582Z,10.30
2023-03-26T21:40:03.082Z,10.80
2023-03-26T21:42:33.761Z,11.10
2023-03-26T21:45:04.286Z,11.38
2023-03-26T21:47:35.963Z,11.80
2023-03-26T21:50:25.966Z,11.15
2023-03-26T21:52:56.610Z,11.65
2023-03-26T21:55:28.259Z,11.50
2023-03-26T21:58:34.937Z,11.75
2023-03-26T22:01:30.151Z,11.20
2023-03-26T22:04:07.269Z,10.85
2023-03-26T22:06:57.392Z,10.45
2023-03-26T22:12:04.571Z,10.43
2023-03-26T22:14:36.120Z,10.63
2023-03-26T22:17:07.838Z,11.00
2023-03-26T22:19:38.376Z,10.60
2023-03-26T22:22:08.673Z,10.90
2023-03-26T22:24:40.007Z,10.75
2023-03-26T22:29:57.721Z,11.18
2023-03-26T22:35:14.924Z,10.48
2023-03-26T22:37:45.582Z,11.02
2023-03-26T22:40:17.144Z,11.98
2023-03-26T22:45:32.963Z,10.82
2023-03-26T22:48:22.188Z,11.02
2023-03-26T22:51:03.941Z,10.60
2023-03-26T22:53:57.068Z,11.10
2023-03-26T22:56:27.787Z,11.25
2023-03-26T22:58:58.203Z,11.98
2023-03-26T23:01:28.673Z,12.17
2023-03-26T23:03:59.036Z,12.13
2023-03-26T23:06:29.290Z,11.48
2023-03-26T23:09:00.343Z,11.93
2023-03-26T23:14:18.023Z,12.25
2023-03-26T23:17:07.626Z,12.05
2023-03-26T23:19:39.465Z,12.20
2023-03-26T23:22:11.105Z,11.77
2023-03-26T23:24:41.869Z,11.88
2023-03-26T23:27:13.161Z,11.77
2023-03-26T23:29:44.626Z,11.00
2023-03-26T23:32:23.783Z,11.60
2023-03-26T23:34:55.328Z,12.32
2023-03-26T23:37:25.891Z,11.27
2023-03-26T23:39:56.197Z,11.37
2023-03-26T23:42:28.292Z,11.75
2023-03-26T23:45:00.341Z,11.95
2023-03-26T23:47:36.591Z,11.95
2023-03-26T23:50:09.573Z,12.07
2023-03-26T23:55:25.612Z,12.23
2023-03-26T23:58:13.923Z,11.18
